Headland, Alabama
Current Conditions -  °F | °C
As of 5:53 PM on Friday 24 Oct 2014 (Local Time) from KDHN Reporting Station
Clear Clear  
Wind Chill: 20°   Ceiling: Unl
Heat Index: 20°   Visibility: 10mi
Dew Point:   Wind: 5mph
Humidity: 45%   Direction: 350°N
Pressure: 30.03"   Gusts: NA
Location:  31.35°N, 85.34°W
Report Text: KDHN 242253Z 35004KT 10SM CLR 20/08 A3003 RMK AO2 SLP167 T02000078
Loading
Personal Weather Stations






























Interactive Weather Map
Tropical Storm Tracking
New forecast layout! Learn more

10-Day Weather Forecast

Advertisements
Track Severe Weather on mobile